createdAt,value
2023-05-20T00:00:54.483Z,39.00
2023-05-20T00:03:22.797Z,41.10
2023-05-20T00:05:51.019Z,40.60
2023-05-20T00:08:19.664Z,38.90
2023-05-20T00:10:47.634Z,40.00
2023-05-20T00:13:15.628Z,41.20
2023-05-20T00:15:43.664Z,39.10
2023-05-20T00:18:11.648Z,41.10
2023-05-20T00:20:39.646Z,40.30
2023-05-20T00:23:07.680Z,38.50
2023-05-20T00:25:35.920Z,39.10
2023-05-20T00:28:04.230Z,37.00
2023-05-20T00:30:32.185Z,38.70
2023-05-20T00:33:00.116Z,37.90
2023-05-20T00:35:28.366Z,37.90
2023-05-20T00:37:56.361Z,35.90
2023-05-20T00:40:25.349Z,34.30
2023-05-20T00:42:53.304Z,33.60
2023-05-20T00:45:21.291Z,35.60
2023-05-20T00:47:49.687Z,35.30
2023-05-20T00:50:18.184Z,34.70
2023-05-20T00:52:48.368Z,34.00
2023-05-20T00:55:16.777Z,37.20
2023-05-20T00:57:44.824Z,35.30
2023-05-20T01:00:14.229Z,33.10
2023-05-20T01:02:42.396Z,34.40
2023-05-20T01:05:10.865Z,33.50
2023-05-20T01:07:39.041Z,34.30
2023-05-20T01:10:07.879Z,28.50
2023-05-20T01:12:47.007Z,28.60
2023-05-20T01:15:16.631Z,30.00
2023-05-20T01:17:47.421Z,28.00
2023-05-20T01:20:15.776Z,27.40
2023-05-20T01:22:53.823Z,27.90
2023-05-20T01:25:22.329Z,29.10
2023-05-20T01:27:52.891Z,28.10
2023-05-20T01:30:22.258Z,29.40
2023-05-20T01:32:58.223Z,29.10
2023-05-20T01:35:26.708Z,28.90
2023-05-20T01:37:56.555Z,26.20
2023-05-20T01:40:26.267Z,25.70
2023-05-20T01:42:56.312Z,26.10
2023-05-20T01:45:25.407Z,25.10
2023-05-20T01:47:53.492Z,24.40
2023-05-20T01:50:21.656Z,21.80
2023-05-20T01:52:49.726Z,20.60
2023-05-20T01:55:17.718Z,20.20
2023-05-20T01:57:45.698Z,21.20
2023-05-20T02:00:14.036Z,21.10
2023-05-20T02:02:42.052Z,20.40
2023-05-20T02:05:12.649Z,20.10
2023-05-20T02:07:43.551Z,19.30
2023-05-20T02:10:11.746Z,20.70
2023-05-20T02:12:39.797Z,20.00
2023-05-20T02:15:08.143Z,19.50
2023-05-20T02:17:37.446Z,20.20
2023-05-20T02:20:07.789Z,19.70
2023-05-20T02:22:36.362Z,18.10
2023-05-20T02:25:05.113Z,18.60
2023-05-20T02:27:33.093Z,18.70
2023-05-20T02:30:01.447Z,18.30
2023-05-20T02:32:29.754Z,18.00
2023-05-20T02:34:57.726Z,19.40
2023-05-20T02:37:26.261Z,19.80
2023-05-20T02:39:56.348Z,19.20
2023-05-20T02:42:24.370Z,19.50
2023-05-20T02:44:56.627Z,18.00
2023-05-20T02:47:25.727Z,18.90
2023-05-20T02:49:53.785Z,17.40
2023-05-20T02:52:23.222Z,19.30
2023-05-20T02:54:53.001Z,18.80
2023-05-20T02:57:21.197Z,20.60
2023-05-20T02:59:49.109Z,21.90
2023-05-20T03:02:17.604Z,20.20
2023-05-20T03:04:47.551Z,19.90
2023-05-20T03:07:19.758Z,20.90
2023-05-20T03:09:48.050Z,18.80
2023-05-20T03:12:16.141Z,20.00
2023-05-20T03:14:44.123Z,19.40
2023-05-20T03:17:12.507Z,19.40
2023-05-20T03:19:41.293Z,20.60
2023-05-20T03:22:09.378Z,21.80
2023-05-20T03:24:37.811Z,22.30
2023-05-20T03:27:07.009Z,20.90
2023-05-20T03:29:35.327Z,22.10
2023-05-20T03:32:04.046Z,21.30
2023-05-20T03:34:31.991Z,22.50
2023-05-20T03:37:00.477Z,23.30
2023-05-20T03:39:28.507Z,21.00
2023-05-20T03:41:56.494Z,20.10
2023-05-20T03:44:24.549Z,18.60
2023-05-20T03:46:52.525Z,19.70
2023-05-20T03:49:21.024Z,19.60
2023-05-20T03:51:49.029Z,19.50
2023-05-20T03:54:17.576Z,19.40
2023-05-20T03:56:49.589Z,18.80
2023-05-20T03:59:19.195Z,18.50
2023-05-20T04:01:47.268Z,20.50
2023-05-20T04:04:15.516Z,19.50
2023-05-20T04:06:44.085Z,20.40
2023-05-20T04:09:12.698Z,20.40
2023-05-20T04:11:40.721Z,21.50
2023-05-20T04:14:10.624Z,21.10
2023-05-20T04:16:39.589Z,20.20
2023-05-20T04:19:08.083Z,21.00
2023-05-20T04:21:36.276Z,20.20
2023-05-20T04:24:04.641Z,18.60
2023-05-20T04:26:33.960Z,19.90
2023-05-20T04:29:04.262Z,19.20
2023-05-20T04:31:33.862Z,20.30
2023-05-20T04:34:02.891Z,19.70
2023-05-20T04:36:31.270Z,21.70
2023-05-20T04:39:01.961Z,20.40
2023-05-20T04:41:31.353Z,20.90
2023-05-20T04:44:00.626Z,21.20
2023-05-20T04:46:28.853Z,21.00
2023-05-20T04:48:56.988Z,21.60
2023-05-20T04:51:25.082Z,21.70
2023-05-20T04:53:53.122Z,19.00
2023-05-20T04:56:21.063Z,19.30
2023-05-20T04:58:49.206Z,18.80
2023-05-20T05:01:17.308Z,18.50
2023-05-20T05:03:45.694Z,17.60
2023-05-20T05:06:14.616Z,17.10
2023-05-20T05:08:43.015Z,16.70
2023-05-20T05:11:11.163Z,18.30
2023-05-20T05:13:39.201Z,18.70
2023-05-20T05:16:07.506Z,16.70
2023-05-20T05:18:35.620Z,18.40
2023-05-20T05:21:06.309Z,15.60
2023-05-20T05:23:35.519Z,16.90
2023-05-20T05:26:03.649Z,17.30
2023-05-20T05:28:31.633Z,18.00
2023-05-20T05:31:02.339Z,15.60
2023-05-20T05:33:30.694Z,15.90
2023-05-20T05:35:59.489Z,14.70
2023-05-20T05:38:28.484Z,13.40
2023-05-20T05:40:56.925Z,14.40
2023-05-20T05:43:24.946Z,13.00
2023-05-20T05:45:53.110Z,15.80
2023-05-20T05:48:23.339Z,15.90
2023-05-20T05:50:51.572Z,15.40
2023-05-20T05:53:20.249Z,15.70
2023-05-20T05:55:49.588Z,15.80
2023-05-20T05:58:17.782Z,17.00
2023-05-20T06:00:46.649Z,17.90
2023-05-20T06:03:15.681Z,18.40
2023-05-20T06:05:47.705Z,16.70
2023-05-20T06:08:15.848Z,16.80
2023-05-20T06:10:50.045Z,16.60
2023-05-20T06:13:18.264Z,16.20
2023-05-20T06:15:46.573Z,17.80
2023-05-20T06:18:14.507Z,18.20
2023-05-20T06:20:43.196Z,18.80
2023-05-20T06:23:11.467Z,19.30
2023-05-20T06:26:12.042Z,17.70
2023-05-20T06:28:40.215Z,18.20
2023-05-20T06:31:09.245Z,18.00
2023-05-20T06:33:37.547Z,17.90
2023-05-20T06:38:40.213Z,17.30
2023-05-20T06:41:08.452Z,20.30
2023-05-20T06:43:36.377Z,19.40
2023-05-20T06:46:07.103Z,19.80
2023-05-20T06:48:41.139Z,17.50
2023-05-20T06:51:09.585Z,27.20
2023-05-20T06:53:38.105Z,17.80
2023-05-20T06:56:06.963Z,20.30
2023-05-20T06:58:34.973Z,18.00
2023-05-20T07:01:02.879Z,19.30
2023-05-20T07:03:32.110Z,19.10
2023-05-20T07:06:00.308Z,18.50
2023-05-20T07:08:29.180Z,19.60
2023-05-20T07:10:58.008Z,19.70
2023-05-20T07:13:27.540Z,19.20
2023-05-20T07:15:56.708Z,18.70
2023-05-20T07:18:25.482Z,21.60
2023-05-20T07:20:57.144Z,19.10
2023-05-20T07:23:46.357Z,19.10
2023-05-20T07:26:14.353Z,19.10
2023-05-20T07:28:42.612Z,20.10
2023-05-20T07:31:10.700Z,20.20
2023-05-20T07:33:44.122Z,20.30
2023-05-20T07:36:13.043Z,19.90
2023-05-20T07:38:53.179Z,19.50
2023-05-20T07:41:31.617Z,17.90
2023-05-20T07:43:59.742Z,17.30
2023-05-20T07:46:27.828Z,19.90
2023-05-20T07:48:55.920Z,21.50
2023-05-20T07:51:24.011Z,20.00
2023-05-20T07:53:52.188Z,19.80
2023-05-20T07:56:22.189Z,22.50
2023-05-20T07:58:56.476Z,22.80
2023-05-20T08:01:27.360Z,22.70
2023-05-20T08:03:56.002Z,23.30
2023-05-20T08:06:29.466Z,22.00
2023-05-20T08:08:58.624Z,22.10
2023-05-20T08:11:31.174Z,21.70
2023-05-20T08:13:59.733Z,20.90
2023-05-20T08:16:30.124Z,22.20
2023-05-20T08:18:58.332Z,21.30
2023-05-20T08:21:26.839Z,20.70
2023-05-20T08:23:55.622Z,21.20
2023-05-20T08:26:23.645Z,19.50
2023-05-20T08:28:52.004Z,19.10
2023-05-20T08:31:20.514Z,19.00
2023-05-20T08:33:49.267Z,20.80
2023-05-20T08:36:17.263Z,20.00
2023-05-20T08:38:45.428Z,20.60
2023-05-20T08:41:13.607Z,20.10
2023-05-20T08:43:44.664Z,18.90
2023-05-20T08:46:13.217Z,20.60
2023-05-20T08:48:41.408Z,18.80
2023-05-20T08:51:13.948Z,18.30
2023-05-20T08:53:41.972Z,20.10
2023-05-20T08:56:11.831Z,18.80
2023-05-20T08:58:39.833Z,19.30
2023-05-20T09:01:08.508Z,19.00
2023-05-20T09:03:37.118Z,18.10
2023-05-20T09:06:09.702Z,18.10
2023-05-20T09:08:38.384Z,18.80
2023-05-20T09:11:20.613Z,19.60
2023-05-20T09:13:50.816Z,19.50
2023-05-20T09:16:18.835Z,20.20
2023-05-20T09:18:46.851Z,20.00
2023-05-20T09:21:15.055Z,19.20
2023-05-20T09:23:47.640Z,19.00
2023-05-20T09:26:18.495Z,20.80
2023-05-20T09:28:46.685Z,20.00
2023-05-20T09:31:15.142Z,20.00
2023-05-20T09:33:44.387Z,20.70
2023-05-20T09:36:15.907Z,20.60
2023-05-20T09:38:45.678Z,21.80
2023-05-20T09:41:15.500Z,22.40
2023-05-20T09:43:45.314Z,23.80
2023-05-20T09:46:14.327Z,21.70
2023-05-20T09:48:43.761Z,22.20
2023-05-20T09:51:13.546Z,22.20
2023-05-20T09:53:43.230Z,23.10
2023-05-20T09:56:11.575Z,24.90
2023-05-20T09:58:42.585Z,26.60
2023-05-20T10:01:10.591Z,25.20
2023-05-20T10:03:40.108Z,25.00
2023-05-20T10:06:10.099Z,25.90
2023-05-20T10:09:03.083Z,27.30
2023-05-20T10:11:34.065Z,27.00
2023-05-20T10:14:07.738Z,28.00
2023-05-20T10:16:50.889Z,27.40
2023-05-20T10:19:27.261Z,27.60
2023-05-20T10:22:00.564Z,25.60
2023-05-20T10:24:35.861Z,27.20
2023-05-20T10:27:05.852Z,26.80
2023-05-20T10:29:51.437Z,26.90
2023-05-20T10:32:25.404Z,26.50
2023-05-20T10:34:53.531Z,27.80
2023-05-20T10:37:30.708Z,30.70
2023-05-20T10:40:11.781Z,25.60
2023-05-20T10:42:40.675Z,26.40
2023-05-20T10:45:10.082Z,26.70
2023-05-20T10:47:43.013Z,26.20
2023-05-20T10:50:27.969Z,26.00
2023-05-20T10:53:06.956Z,26.70
2023-05-20T10:55:38.946Z,26.20
2023-05-20T10:58:07.814Z,24.00
2023-05-20T11:00:37.811Z,24.20
2023-05-20T11:03:07.567Z,26.10
2023-05-20T11:05:36.508Z,26.40
2023-05-20T11:08:16.919Z,26.60
2023-05-20T11:10:52.640Z,25.50
2023-05-20T11:15:50.540Z,26.20
2023-05-20T11:18:18.981Z,23.30
2023-05-20T11:20:47.892Z,24.00
2023-05-20T11:23:16.572Z,25.20
2023-05-20T11:25:44.601Z,22.40
2023-05-20T11:28:16.614Z,26.90
2023-05-20T11:30:44.698Z,26.00
2023-05-20T11:33:14.380Z,22.60
2023-05-20T11:35:51.341Z,36.00
2023-05-20T11:38:22.168Z,27.60
2023-05-20T11:40:55.524Z,26.40
2023-05-20T11:43:24.653Z,21.30
2023-05-20T11:46:01.246Z,21.80
2023-05-20T11:48:29.219Z,21.60
2023-05-20T11:50:58.120Z,22.30
2023-05-20T11:53:27.216Z,22.50
2023-05-20T11:55:58.024Z,22.00
2023-05-20T11:58:29.368Z,22.70
2023-05-20T12:01:05.684Z,24.10
2023-05-20T12:03:46.120Z,23.80
2023-05-20T12:06:14.516Z,20.70
2023-05-20T12:08:42.475Z,22.00
2023-05-20T12:11:10.466Z,21.10
2023-05-20T12:13:38.698Z,21.60
2023-05-20T12:16:07.061Z,20.90
2023-05-20T12:18:42.174Z,20.50
2023-05-20T12:21:10.770Z,20.30
2023-05-20T12:23:40.958Z,19.70
2023-05-20T12:26:10.047Z,19.70
2023-05-20T12:28:38.001Z,20.50
2023-05-20T12:31:08.309Z,19.20
2023-05-20T12:33:36.456Z,19.80
2023-05-20T12:36:04.765Z,18.10
2023-05-20T12:38:33.651Z,19.30
2023-05-20T12:41:02.239Z,22.30
2023-05-20T12:43:30.244Z,17.40
2023-05-20T12:45:58.346Z,19.10
2023-05-20T12:48:26.497Z,16.50
2023-05-20T12:50:54.486Z,18.80
2023-05-20T12:53:22.467Z,17.60
2023-05-20T12:55:50.602Z,18.30
2023-05-20T12:58:18.544Z,20.40
2023-05-20T13:00:46.559Z,18.10
2023-05-20T13:03:14.892Z,16.50
2023-05-20T13:05:43.254Z,15.70
2023-05-20T13:08:12.737Z,17.50
2023-05-20T13:10:40.957Z,17.40
2023-05-20T13:13:09.305Z,16.10
2023-05-20T13:15:37.317Z,17.30
2023-05-20T13:18:07.149Z,16.40
2023-05-20T13:20:35.906Z,17.10
2023-05-20T13:23:04.400Z,16.60
2023-05-20T13:25:32.669Z,15.60
2023-05-20T13:28:01.221Z,17.10
2023-05-20T13:30:30.054Z,16.90
2023-05-20T13:32:58.123Z,21.20
2023-05-20T13:35:26.197Z,16.00
2023-05-20T13:37:54.275Z,17.90
2023-05-20T13:40:22.681Z,15.30
2023-05-20T13:42:50.699Z,18.10
2023-05-20T13:45:18.850Z,14.70
2023-05-20T13:47:47.391Z,16.50
2023-05-20T13:50:16.701Z,17.30
2023-05-20T13:52:45.285Z,15.70
2023-05-20T13:55:13.316Z,16.00
2023-05-20T13:57:41.317Z,17.20
2023-05-20T14:00:10.044Z,13.40
2023-05-20T14:02:38.232Z,16.10
2023-05-20T14:05:07.867Z,14.00
2023-05-20T14:07:36.111Z,16.60
2023-05-20T14:10:04.484Z,14.20
2023-05-20T14:12:32.433Z,16.20
2023-05-20T14:15:00.490Z,14.10
2023-05-20T14:17:28.574Z,15.60
2023-05-20T14:19:56.642Z,15.40
2023-05-20T14:22:24.615Z,14.50
2023-05-20T14:24:52.650Z,14.10
2023-05-20T14:27:20.820Z,15.60
2023-05-20T14:29:48.828Z,16.80
2023-05-20T14:32:16.849Z,14.80
2023-05-20T14:34:44.862Z,19.60
2023-05-20T14:37:15.895Z,14.80
2023-05-20T14:39:43.937Z,13.70
2023-05-20T14:42:12.379Z,17.30
2023-05-20T14:44:40.510Z,16.30
2023-05-20T14:47:08.695Z,14.30
2023-05-20T14:49:39.305Z,13.90
2023-05-20T14:52:07.783Z,16.00
2023-05-20T14:54:35.752Z,16.30
2023-05-20T14:57:06.495Z,14.00
2023-05-20T14:59:34.522Z,12.00
2023-05-20T15:02:02.550Z,17.70
2023-05-20T15:04:30.590Z,17.60
2023-05-20T15:06:58.693Z,12.70
2023-05-20T15:09:26.772Z,12.90
2023-05-20T15:11:54.745Z,12.60
2023-05-20T15:14:22.762Z,13.70
2023-05-20T15:16:50.988Z,13.80
2023-05-20T15:19:19.042Z,12.30
2023-05-20T15:21:47.313Z,12.90
2023-05-20T15:24:15.397Z,18.20
2023-05-20T15:26:43.456Z,15.70
2023-05-20T15:29:11.517Z,13.40
2023-05-20T15:31:39.545Z,11.60
2023-05-20T15:34:07.704Z,14.60
2023-05-20T15:36:35.952Z,16.30
2023-05-20T15:39:04.054Z,15.90
2023-05-20T15:41:33.196Z,14.00
2023-05-20T15:44:01.329Z,13.10
2023-05-20T15:46:29.520Z,15.20
2023-05-20T15:48:58.238Z,16.10
2023-05-20T15:51:26.738Z,15.70
2023-05-20T15:53:54.761Z,15.80
2023-05-20T15:56:23.401Z,13.90
2023-05-20T15:58:51.544Z,15.40
2023-05-20T16:01:19.492Z,17.50
2023-05-20T16:03:47.963Z,14.10
2023-05-20T16:06:16.240Z,12.40
2023-05-20T16:08:44.147Z,14.10
2023-05-20T16:11:12.102Z,12.50
2023-05-20T16:13:40.101Z,13.80
2023-05-20T16:16:08.118Z,14.90
2023-05-20T16:18:36.296Z,13.50
2023-05-20T16:21:07.458Z,17.50
2023-05-20T16:23:35.427Z,14.90
2023-05-20T16:26:03.416Z,12.60
2023-05-20T16:28:31.390Z,12.70
2023-05-20T16:30:59.467Z,13.80
2023-05-20T16:33:27.446Z,12.70
2023-05-20T16:35:56.310Z,13.80
2023-05-20T16:38:24.310Z,13.70
2023-05-20T16:40:52.334Z,15.30
2023-05-20T16:43:20.417Z,20.50
2023-05-20T16:45:48.645Z,12.40
2023-05-20T16:48:17.201Z,14.30
2023-05-20T16:50:45.254Z,12.00
2023-05-20T16:53:14.467Z,14.20
2023-05-20T16:55:44.403Z,14.10
2023-05-20T16:58:12.356Z,12.40
2023-05-20T17:00:41.189Z,14.80
2023-05-20T17:03:09.399Z,16.80
2023-05-20T17:05:37.600Z,13.30
2023-05-20T17:08:05.698Z,13.10
2023-05-20T17:10:33.975Z,13.20
2023-05-20T17:13:02.199Z,19.50
2023-05-20T17:15:30.125Z,12.40
2023-05-20T17:17:58.113Z,26.30
2023-05-20T17:20:26.395Z,18.80
2023-05-20T17:22:54.344Z,14.90
2023-05-20T17:25:22.418Z,12.80
2023-05-20T17:27:50.990Z,18.10
2023-05-20T17:30:19.079Z,13.50
2023-05-20T17:32:47.198Z,14.70
2023-05-20T17:35:15.512Z,12.30
2023-05-20T17:37:43.494Z,13.80
2023-05-20T17:40:13.377Z,16.50
2023-05-20T17:42:41.382Z,14.10
2023-05-20T17:45:09.719Z,14.20
2023-05-20T17:47:37.767Z,15.70
2023-05-20T17:50:07.090Z,14.90
2023-05-20T17:52:35.078Z,14.30
2023-05-20T17:55:04.940Z,14.90
2023-05-20T17:57:33.236Z,17.80
2023-05-20T18:00:02.351Z,14.70
2023-05-20T18:02:33.191Z,15.60
2023-05-20T18:05:01.530Z,15.30
2023-05-20T18:07:30.578Z,14.30
2023-05-20T18:09:58.617Z,15.60
2023-05-20T18:12:26.790Z,14.50
2023-05-20T18:14:54.795Z,15.50
2023-05-20T18:17:22.811Z,14.70
2023-05-20T18:19:50.883Z,16.20
2023-05-20T18:22:19.043Z,15.30
2023-05-20T18:24:47.033Z,16.10
2023-05-20T18:27:14.984Z,14.80
2023-05-20T18:29:43.020Z,16.20
2023-05-20T18:32:11.524Z,16.30
2023-05-20T18:34:39.556Z,15.90
2023-05-20T18:37:07.633Z,14.90
2023-05-20T18:39:35.624Z,14.10
2023-05-20T18:42:03.740Z,15.00
2023-05-20T18:44:31.746Z,12.70
2023-05-20T18:46:59.820Z,20.10
2023-05-20T18:49:27.816Z,14.00
2023-05-20T18:51:55.846Z,12.60
2023-05-20T18:54:24.145Z,12.40
2023-05-20T18:56:52.728Z,13.60
2023-05-20T18:59:23.315Z,14.90
2023-05-20T19:01:53.109Z,15.00
2023-05-20T19:04:21.498Z,11.20
2023-05-20T19:06:49.644Z,11.50
2023-05-20T19:09:21.931Z,13.10
2023-05-20T19:11:55.969Z,15.10
2023-05-20T19:14:23.940Z,12.20
2023-05-20T19:16:53.188Z,14.10
2023-05-20T19:19:22.069Z,11.70
2023-05-20T19:21:50.609Z,12.00
2023-05-20T19:24:19.693Z,11.60
2023-05-20T19:26:47.673Z,10.50
2023-05-20T19:29:17.142Z,12.00
2023-05-20T19:31:46.126Z,13.30
2023-05-20T19:34:14.814Z,13.50
2023-05-20T19:36:44.445Z,11.00
2023-05-20T19:39:13.412Z,11.70
2023-05-20T19:41:41.695Z,11.60
2023-05-20T19:44:09.695Z,10.80
2023-05-20T19:46:38.289Z,14.10
2023-05-20T19:49:06.553Z,11.00
2023-05-20T19:51:34.938Z,10.70
2023-05-20T19:54:54.239Z,11.90
2023-05-20T19:57:22.278Z,10.70
2023-05-20T19:59:54.140Z,12.00
2023-05-20T20:02:22.773Z,11.50
2023-05-20T20:04:51.848Z,14.20
2023-05-20T20:07:19.904Z,12.00
2023-05-20T20:09:49.171Z,12.00
2023-05-20T20:12:18.388Z,13.30
2023-05-20T20:14:46.693Z,12.60
2023-05-20T20:17:16.051Z,12.90
2023-05-20T20:19:50.295Z,10.80
2023-05-20T20:22:18.561Z,11.00
2023-05-20T20:24:46.737Z,13.40
2023-05-20T20:27:14.682Z,13.70
2023-05-20T20:29:42.846Z,13.40
2023-05-20T20:32:11.862Z,12.40
2023-05-20T20:34:39.931Z,13.20
2023-05-20T20:37:07.851Z,10.60
2023-05-20T20:39:37.351Z,11.00
2023-05-20T20:42:05.575Z,12.30
2023-05-20T20:44:33.484Z,11.60
2023-05-20T20:47:04.391Z,12.60
2023-05-20T20:49:32.625Z,12.40
2023-05-20T20:52:01.308Z,12.70
2023-05-20T20:54:29.329Z,11.50
2023-05-20T20:57:00.151Z,12.90
2023-05-20T20:59:28.862Z,12.10
2023-05-20T21:01:58.066Z,14.30
2023-05-20T21:04:28.100Z,15.50
2023-05-20T21:06:56.282Z,14.10
2023-05-20T21:09:24.343Z,11.40
2023-05-20T21:11:52.292Z,11.80
2023-05-20T21:14:20.425Z,12.60
2023-05-20T21:16:48.437Z,12.40
2023-05-20T21:19:16.516Z,12.00
2023-05-20T21:21:45.396Z,12.30
2023-05-20T21:24:13.478Z,12.70
2023-05-20T21:26:41.476Z,12.10
2023-05-20T21:29:12.158Z,11.30
2023-05-20T21:31:40.111Z,11.90
2023-05-20T21:34:08.882Z,14.70
2023-05-20T21:36:40.400Z,11.50
2023-05-20T21:39:08.420Z,12.80
2023-05-20T21:41:36.413Z,13.20
2023-05-20T21:44:04.560Z,12.40
2023-05-20T21:46:32.576Z,12.20
2023-05-20T21:49:00.502Z,11.20
2023-05-20T21:51:28.498Z,11.10
2023-05-20T21:53:56.817Z,12.30
2023-05-20T21:56:24.810Z,12.00
2023-05-20T21:58:52.769Z,11.30
2023-05-20T22:01:20.788Z,11.60
2023-05-20T22:03:51.461Z,11.40
2023-05-20T22:06:21.694Z,12.00
2023-05-20T22:08:49.768Z,14.10
2023-05-20T22:11:19.945Z,13.00
2023-05-20T22:13:48.166Z,12.30
2023-05-20T22:16:16.900Z,12.40
2023-05-20T22:18:47.976Z,12.40
2023-05-20T22:21:16.244Z,12.70
2023-05-20T22:23:44.230Z,13.00
2023-05-20T22:26:12.271Z,12.40
2023-05-20T22:28:40.207Z,12.00
2023-05-20T22:31:08.556Z,13.10
2023-05-20T22:33:37.208Z,11.90
2023-05-20T22:36:05.447Z,13.30
2023-05-20T22:38:35.824Z,16.50
2023-05-20T22:41:03.970Z,13.40
2023-05-20T22:43:32.009Z,13.60
2023-05-20T22:46:00.092Z,15.10
2023-05-20T22:48:28.190Z,14.30
2023-05-20T22:50:56.223Z,12.90
2023-05-20T22:53:24.213Z,13.20
2023-05-20T22:55:52.137Z,12.30
2023-05-20T22:58:20.032Z,12.40
2023-05-20T23:00:48.016Z,17.90
2023-05-20T23:03:16.019Z,12.20
2023-05-20T23:05:44.065Z,13.50
2023-05-20T23:08:12.084Z,16.20
2023-05-20T23:10:39.995Z,12.70
2023-05-20T23:13:07.947Z,13.50
2023-05-20T23:15:36.734Z,14.90
2023-05-20T23:18:05.073Z,13.90
2023-05-20T23:20:33.153Z,12.90
2023-05-20T23:23:08.270Z,12.70
2023-05-20T23:25:39.481Z,13.70
2023-05-20T23:28:07.740Z,12.50
2023-05-20T23:30:36.545Z,13.70
2023-05-20T23:33:04.725Z,16.10
2023-05-20T23:35:32.843Z,13.70
2023-05-20T23:38:00.881Z,14.50
2023-05-20T23:40:28.820Z,13.20
2023-05-20T23:42:56.796Z,13.60
2023-05-20T23:45:24.754Z,14.40
2023-05-20T23:47:54.023Z,16.60
2023-05-20T23:50:22.091Z,13.00
2023-05-20T23:52:50.050Z,15.70
2023-05-20T23:55:18.480Z,14.80
2023-05-20T23:57:46.485Z,14.10
